Disclaimer

Please do not use the information listed here in-flight or in-navigation, as they are not provided to us by the airports but are provided by volunteers, so they might be outdated.

Search


Regions


Airport information page

Radio informations:
LAAYOUNE TWR - 131.1 MHz
LAAYOUNE APP - 127.5 MHz

Airport informations:
Latitude: 27° 09' 06.00" N
Longitude: 013° 13' 09.00" W
Elevation: 207 feet - 63 meters
Operating hours: 24 hour operations
Operating agency: Military-civil joint use airport
Timezone: UTC 0
Fuel: Jet A1, without icing nhibitor.

100/130 MIL Spec, low lead, aviation gasoline (BLUE)

Runway information:
02/20 - 8861 x 148 feet< - >2701 x 45 meters
04/22 - 8202 x 148 feet< - >2500 x 45 meters

Recent METARs:
GMML 130200Z 36006KT CAVOK 15/13 Q1024 NOSIG
GMML 130300Z 36006KT CAVOK 15/13 Q1024 NOSIG
GMML 130300Z 36006KT CAVOK 15/13 Q1024 NOSIG

Airport on the map: